首页
METAR-TAF:

METAR-TAF

机场 :

Yellowstone Lake, 怀俄明州, 美国

纬度: 44-32-40N, 经度: 110-25-16W, 海拔: 2388米

当前天气观测

该预报发布于1小时和13分钟前的14:56 UTC
风速7节,风向西,有时为15节阵风,在西转西南西北之间变化
温度 -7°C
湿度 79%
气压 1014 hPa

METAR: KP60 131456Z AUTO 28007G15KT 240V310 M07/M10 A2995 RMK AO1 SLP184 60001 T10721100 51006

时间: 09:09 (16:09 UTC)


TAF: 丢失

超过4000个机场的气象观测和天气预报(METAR&TAF报告)。

可查询的气象台以黄色和红色小点在地图上表示。

将鼠标移到小点上方,可查看气象台名称。

然后点击查看天气观测和预报。

如需切换地图:点击带黑十字的绿色按钮放大地图;点击带横线的绿色按钮缩小地图;或者点击绿色箭头查看邻近地区的地图。


METAR-TAF: